Time;durP1;ratioP1;P1;durP2;ratioP2;P2;SDS_P1;SDS_P2;PMS_P1;PMS_P2;Temp;Humidity;BMP_temperature;BMP_pressure;BME280_temperature;BME280_humidity;BME280_pressure;Samples;Min_cycle;Max_cycle;Signal;HPM_P1;HPM_P2
2021/06/21 00:02:00;;;;;;;2.93;1.87;;;17.60;99.90;;;;;;6137432;23;20289;-66
2021/06/21 00:04:26;;;;;;;2.20;1.73;;;17.60;99.90;;;;;;6137366;23;20197;-66
2021/06/21 00:06:51;;;;;;;3.90;2.10;;;17.60;99.90;;;;;;6137263;23;20155;-67
2021/06/21 00:09:17;;;;;;;10.43;2.07;;;17.70;99.90;;;;;;6150803;23;20170;-66
2021/06/21 00:11:42;;;;;;;1.73;1.63;;;17.60;99.90;;;;;;6150945;23;20186;-66
2021/06/21 00:14:08;;;;;;;2.23;1.30;;;17.50;99.90;;;;;;6137536;23;20507;-66
2021/06/21 00:16:34;;;;;;;5.77;1.97;;;17.40;99.90;;;;;;6137249;23;20170;-66
2021/06/21 00:18:59;;;;;;;3.17;2.33;;;17.30;99.90;;;;;;6127732;23;20166;-66
2021/06/21 00:21:25;;;;;;;7.67;2.63;;;17.30;99.90;;;;;;6128055;23;20242;-66
2021/06/21 00:23:50;;;;;;;6.23;3.10;;;17.30;99.90;;;;;;6137292;23;20593;-67
2021/06/21 00:26:16;;;;;;;3.50;2.50;;;17.50;99.90;;;;;;6127576;23;20181;-67
2021/06/21 00:28:42;;;;;;;4.70;2.20;;;17.50;99.90;;;;;;6137146;23;20159;-67
2021/06/21 00:31:07;;;;;;;3.43;2.47;;;17.30;99.90;;;;;;6137532;23;20163;-66
2021/06/21 00:33:33;;;;;;;4.10;2.57;;;17.10;99.90;;;;;;6137571;23;20283;-66
2021/06/21 00:35:58;;;;;;;5.50;2.50;;;17.00;99.90;;;;;;6137511;23;20147;-66
2021/06/21 00:38:24;;;;;;;5.40;2.90;;;17.10;99.90;;;;;;6137106;23;20478;-66
2021/06/21 00:40:49;;;;;;;2.83;2.43;;;17.20;99.90;;;;;;6137470;23;20229;-66
2021/06/21 00:43:15;;;;;;;4.90;3.23;;;17.20;99.90;;;;;;6137327;23;20247;-66
2021/06/21 00:45:40;;;;;;;5.03;3.37;;;17.20;99.90;;;;;;6137221;23;20273;-67
2021/06/21 00:48:06;;;;;;;4.10;2.77;;;17.10;99.90;;;;;;6137130;23;20182;-67
2021/06/21 00:50:32;;;;;;;6.10;3.00;;;17.10;99.90;;;;;;6150713;23;20573;-67
2021/06/21 00:53:00;;;;;;;5.67;3.70;;;16.90;99.90;;;;;;6137230;23;20394;-66
2021/06/21 00:55:26;;;;;;;9.10;3.20;;;17.00;99.90;;;;;;6137159;23;20161;-66
2021/06/21 00:57:52;;;;;;;6.30;3.00;;;17.10;99.90;;;;;;6137083;23;20718;-66
2021/06/21 01:00:20;;;;;;;3.63;2.50;;;17.00;99.90;;;;;;6150308;23;20413;-66
2021/06/21 01:02:46;;;;;;;4.90;2.90;;;17.10;99.90;;;;;;6137248;23;20170;-66
2021/06/21 01:05:16;;;;;;;5.63;3.30;;;16.90;99.90;;;;;;6137200;23;20422;-66
2021/06/21 01:07:42;;;;;;;7.03;3.20;;;16.80;99.90;;;;;;6137022;23;20413;-66
2021/06/21 01:10:09;;;;;;;4.87;2.80;;;16.60;99.90;;;;;;6136937;23;20386;-65
2021/06/21 01:12:47;;;;;;;13.17;3.63;;;16.70;99.90;;;;;;6137419;23;20179;-65
2021/06/21 01:15:22;;;;;;;10.47;3.60;;;16.60;99.90;;;;;;6137303;23;20457;-65
2021/06/21 01:17:51;;;;;;;6.60;3.43;;;16.50;99.90;;;;;;6137647;23;20404;-65
2021/06/21 01:20:26;;;;;;;5.27;3.10;;;16.60;99.90;;;;;;6150950;23;20402;-66
2021/06/21 01:23:11;;;;;;;8.33;4.17;;;16.70;99.90;;;;;;6125904;23;20394;-66
2021/06/21 01:26:04;;;;;;;5.03;4.10;;;16.70;99.90;;;;;;6136609;23;20434;-66
2021/06/21 01:28:59;;;;;;;6.03;4.13;;;16.60;99.90;;;;;;6136657;23;20806;-66
2021/06/21 01:31:40;;;;;;;3.10;2.90;;;16.50;99.90;;;;;;6125637;23;20759;-66
2021/06/21 01:34:06;;;;;;;6.23;3.53;;;16.40;99.90;;;;;;6136847;23;20404;-66
2021/06/21 01:36:32;;;;;;;9.37;3.90;;;16.50;99.90;;;;;;6136697;23;20404;-66
2021/06/21 01:38:59;;;;;;;4.87;3.80;;;16.50;99.90;;;;;;6135546;23;20394;-66
2021/06/21 01:41:30;;;;;;;6.47;3.47;;;16.50;99.90;;;;;;6136767;23;20465;-66
2021/06/21 01:43:58;;;;;;;6.10;3.50;;;16.40;99.90;;;;;;6136703;23;20441;-66
2021/06/21 01:46:29;;;;;;;6.40;3.60;;;16.50;99.90;;;;;;6127184;23;20728;-66
2021/06/21 01:48:58;;;;;;;6.63;3.97;;;16.50;99.90;;;;;;6136434;23;20374;-66
2021/06/21 01:51:24;;;;;;;4.93;4.47;;;16.40;99.90;;;;;;6136656;23;20469;-66
2021/06/21 01:53:53;;;;;;;3.90;3.60;;;16.40;99.90;;;;;;6136638;23;20383;-66
2021/06/21 01:56:26;;;;;;;5.20;3.40;;;16.50;99.90;;;;;;6136606;23;20402;-66
2021/06/21 01:58:53;;;;;;;6.23;3.90;;;16.40;99.90;;;;;;6136415;23;20375;-67
2021/06/21 02:01:20;;;;;;;6.80;4.33;;;16.30;99.90;;;;;;6136502;23;20390;-66
2021/06/21 02:03:57;;;;;;;6.35;4.32;;;16.20;99.90;;;;;;6136451;23;20387;-66
2021/06/21 02:06:28;;;;;;;8.32;4.65;;;16.20;99.90;;;;;;6136446;23;20150;-66
2021/06/21 02:08:55;;;;;;;5.00;3.73;;;16.10;99.90;;;;;;6149949;23;20550;-66
2021/06/21 02:11:21;;;;;;;6.37;3.90;;;16.30;99.90;;;;;;6136106;23;20768;-66
2021/06/21 02:13:49;;;;;;;5.73;4.40;;;16.10;99.90;;;;;;6138499;23;20414;-66
2021/06/21 02:16:16;;;;;;;5.33;4.10;;;16.10;99.90;;;;;;6138459;23;20155;-65
2021/06/21 02:18:43;;;;;;;4.90;3.80;;;16.30;99.90;;;;;;6151919;23;20814;-65
2021/06/21 02:21:11;;;;;;;8.57;5.23;;;16.30;99.90;;;;;;6138512;23;20461;-65
2021/06/21 02:23:37;;;;;;;10.03;5.60;;;16.10;99.90;;;;;;6138352;23;20808;-66
2021/06/21 02:26:04;;;;;;;6.77;4.50;;;16.10;99.90;;;;;;6127531;23;20441;-66
2021/06/21 02:28:34;;;;;;;7.23;4.43;;;16.00;99.90;;;;;;6151684;23;20417;-66
2021/06/21 02:31:01;;;;;;;10.50;5.13;;;15.90;99.90;;;;;;6151988;23;20453;-66
2021/06/21 02:33:26;;;;;;;5.30;4.50;;;16.00;99.90;;;;;;6138754;23;20383;-66
2021/06/21 02:35:52;;;;;;;5.60;5.07;;;16.00;99.90;;;;;;6138498;23;20161;-66
2021/06/21 02:38:18;;;;;;;8.05;5.03;;;16.00;99.90;;;;;;6128623;23;20174;-65
2021/06/21 02:40:44;;;;;;;7.70;5.40;;;16.10;99.90;;;;;;6138645;23;20151;-65
2021/06/21 02:43:11;;;;;;;7.35;5.07;;;16.00;99.90;;;;;;6138285;23;20159;-65
2021/06/21 02:45:36;;;;;;;9.55;5.75;;;16.10;99.90;;;;;;6138300;23;20223;-66
2021/06/21 02:48:04;;;;;;;10.60;6.40;;;16.10;99.90;;;;;;6138224;23;20573;-66
2021/06/21 02:50:30;;;;;;;8.80;6.00;;;16.10;99.90;;;;;;6138011;23;20162;-66
2021/06/21 02:53:29;;;;;;;9.43;5.63;;;16.00;99.90;;;;;;6151999;23;20395;-66
2021/06/21 02:56:23;;;;;;;5.63;4.60;;;16.20;99.90;;;;;;6138272;23;20371;-66
2021/06/21 02:58:50;;;;;;;6.53;5.15;;;15.90;99.90;;;;;;6138079;23;20445;-66
2021/06/21 03:01:18;;;;;;;5.87;5.30;;;16.00;99.90;;;;;;6138134;23;20167;-66
2021/06/21 03:03:53;;;;;;;7.73;5.53;;;16.10;99.90;;;;;;6138062;23;20398;-66
2021/06/21 03:06:21;;;;;;;7.93;5.73;;;16.10;99.90;;;;;;6128572;23;20405;-66
2021/06/21 03:08:49;;;;;;;9.43;5.23;;;16.10;99.90;;;;;;6138492;23;20400;-66
2021/06/21 03:11:16;;;;;;;7.93;6.17;;;16.00;99.90;;;;;;6137917;23;20770;-66
2021/06/21 03:13:45;;;;;;;9.57;6.72;;;15.70;99.90;;;;;;6137978;23;20391;-66
2021/06/21 03:16:11;;;;;;;7.70;6.80;;;15.70;99.90;;;;;;6151661;23;20246;-66
2021/06/21 03:18:38;;;;;;;10.07;7.47;;;15.70;99.90;;;;;;6137789;23;20427;-65
2021/06/21 03:21:04;;;;;;;13.27;7.70;;;15.70;99.90;;;;;;6128390;23;20446;-66
2021/06/21 03:23:31;;;;;;;12.43;8.50;;;15.90;99.90;;;;;;6137513;23;20386;-66
2021/06/21 03:25:58;;;;;;;14.00;8.57;;;15.90;99.90;;;;;;6137806;23;20441;-66
2021/06/21 03:28:24;;;;;;;13.40;8.57;;;15.70;99.90;;;;;;6137675;23;20838;-66
2021/06/21 03:31:02;;;;;;;13.00;9.00;;;15.80;99.90;;;;;;6138040;23;20421;-66
2021/06/21 03:33:29;;;;;;;10.60;7.73;;;15.70;99.90;;;;;;6137957;23;20233;-66
2021/06/21 03:35:54;;;;;;;10.37;8.33;;;15.60;99.90;;;;;;6137687;23;20401;-65
2021/06/21 03:38:24;;;;;;;11.30;10.20;;;15.50;99.90;;;;;;6137492;23;20540;-65
2021/06/21 03:40:51;;;;;;;12.10;9.07;;;15.60;99.90;;;;;;6151428;23;20170;-65
2021/06/21 03:43:20;;;;;;;13.53;10.33;;;15.50;99.90;;;;;;6137727;23;20425;-66
2021/06/21 03:45:47;;;;;;;10.57;8.23;;;15.40;99.90;;;;;;6137463;23;20469;-66
2021/06/21 03:48:12;;;;;;;11.93;8.40;;;15.60;99.90;;;;;;6127850;23;20436;-65
2021/06/21 03:50:38;;;;;;;14.60;8.60;;;15.60;99.90;;;;;;6138137;23;20817;-65
2021/06/21 03:53:04;;;;;;;10.63;8.10;;;15.60;99.90;;;;;;6137744;23;20159;-65
2021/06/21 03:55:30;;;;;;;12.63;8.07;;;15.50;99.90;;;;;;6137872;23;20159;-65
2021/06/21 03:57:56;;;;;;;11.23;8.57;;;15.40;99.90;;;;;;6126942;23;20406;-65
2021/06/21 04:00:29;;;;;;;9.63;7.82;;;15.40;99.90;;;;;;6137013;23;20394;-65
2021/06/21 04:02:59;;;;;;;10.07;7.67;;;15.50;99.90;;;;;;6151419;23;20155;-66
2021/06/21 04:05:26;;;;;;;9.53;7.63;;;15.50;99.90;;;;;;6137488;23;20517;-65
2021/06/21 04:07:52;;;;;;;12.00;7.50;;;15.40;99.90;;;;;;6137440;23;20425;-65
2021/06/21 04:10:20;;;;;;;10.43;8.18;;;15.40;99.90;;;;;;6137452;23;20240;-66
2021/06/21 04:12:47;;;;;;;9.90;7.53;;;15.40;99.90;;;;;;6137648;23;20162;-65
2021/06/21 04:15:15;;;;;;;12.60;8.17;;;15.40;99.90;;;;;;6128213;23;20395;-65
2021/06/21 04:17:41;;;;;;;9.77;8.57;;;15.40;99.90;;;;;;6137362;23;20704;-65
2021/06/21 04:20:13;;;;;;;11.98;8.98;;;15.40;99.90;;;;;;6127812;23;20218;-65
2021/06/21 04:22:40;;;;;;;8.80;7.87;;;15.50;99.90;;;;;;6137614;23;20170;-65
2021/06/21 04:25:08;;;;;;;9.20;7.97;;;15.60;99.90;;;;;;6127648;23;20603;-65
2021/06/21 04:27:34;;;;;;;10.53;8.30;;;15.60;99.90;;;;;;6150795;23;20473;-65
2021/06/21 04:29:59;;;;;;;12.30;8.97;;;15.50;99.90;;;;;;6137280;23;20481;-65
2021/06/21 04:32:25;;;;;;;12.70;9.27;;;15.40;99.90;;;;;;6137446;23;20159;-65
2021/06/21 04:34:51;;;;;;;8.70;7.07;;;15.30;99.90;;;;;;6136773;23;20173;-66
2021/06/21 04:37:16;;;;;;;8.67;7.33;;;15.40;99.90;;;;;;6137159;23;20190;-66
2021/06/21 04:39:42;;;;;;;7.73;6.20;;;15.50;99.90;;;;;;6150725;23;20163;-66
2021/06/21 04:42:08;;;;;;;9.07;7.43;;;15.60;99.90;;;;;;6137237;23;20174;-66
2021/06/21 04:44:34;;;;;;;10.07;7.57;;;15.70;99.90;;;;;;6137142;23;20613;-66
2021/06/21 04:46:59;;;;;;;8.60;7.60;;;15.70;99.90;;;;;;6137473;23;20390;-67
2021/06/21 04:49:25;;;;;;;8.70;6.20;;;15.90;99.90;;;;;;6150593;23;20159;-66
2021/06/21 04:51:51;;;;;;;9.13;6.70;;;15.80;99.90;;;;;;6127686;23;20173;-66
2021/06/21 04:54:17;;;;;;;7.40;6.70;;;15.60;99.90;;;;;;6127254;23;20634;-66
2021/06/21 04:56:43;;;;;;;7.10;6.13;;;15.70;99.90;;;;;;6136844;23;20394;-66
2021/06/21 04:59:08;;;;;;;7.13;6.43;;;15.90;99.90;;;;;;6127357;23;20309;-66
2021/06/21 05:01:34;;;;;;;7.93;7.20;;;15.90;99.90;;;;;;6136988;23;20163;-66
2021/06/21 05:04:01;;;;;;;9.13;6.10;;;15.60;99.90;;;;;;6136879;23;20179;-66
2021/06/21 05:06:27;;;;;;;8.13;6.15;;;15.80;99.90;;;;;;6136898;23;20151;-66
2021/06/21 05:08:54;;;;;;;13.37;7.00;;;15.60;99.90;;;;;;6136615;23;20280;-66
2021/06/21 05:11:19;;;;;;;7.53;6.57;;;15.70;99.90;;;;;;6136963;23;20481;-66
2021/06/21 05:13:45;;;;;;;8.20;6.97;;;15.60;99.90;;;;;;6136087;23;20182;-66
2021/06/21 05:16:11;;;;;;;8.20;6.80;;;15.70;99.90;;;;;;6136891;23;20158;-65
2021/06/21 05:18:37;;;;;;;8.27;6.40;;;15.80;99.90;;;;;;6136843;23;20554;-66
2021/06/21 05:21:04;;;;;;;9.20;7.67;;;15.90;99.90;;;;;;6136766;23;20387;-66
2021/06/21 05:23:29;;;;;;;8.43;7.60;;;16.00;99.90;;;;;;6136425;23;20532;-66
2021/06/21 05:25:55;;;;;;;8.17;6.70;;;16.00;99.90;;;;;;6126606;23;20446;-67
2021/06/21 05:28:21;;;;;;;7.47;6.63;;;15.80;99.90;;;;;;6149904;23;20422;-66
2021/06/21 05:30:46;;;;;;;7.70;6.90;;;15.90;99.90;;;;;;6136729;23;20154;-66
2021/06/21 05:33:14;;;;;;;6.20;5.27;;;15.70;99.90;;;;;;6136604;23;20461;-67
2021/06/21 05:35:40;;;;;;;4.70;4.20;;;15.70;99.90;;;;;;6136799;23;20161;-67
2021/06/21 05:38:06;;;;;;;8.43;5.60;;;15.60;99.90;;;;;;6136361;23;20147;-68
2021/06/21 05:40:31;;;;;;;8.57;6.37;;;15.60;99.90;;;;;;6136085;23;20748;-68
2021/06/21 05:42:57;;;;;;;5.90;4.80;;;15.60;99.90;;;;;;6136253;23;20237;-67
2021/06/21 05:45:25;;;;;;;5.33;4.27;;;15.60;99.90;;;;;;6136248;23;20210;-68
2021/06/21 05:47:51;;;;;;;5.67;4.10;;;15.50;99.90;;;;;;6126997;23;20250;-68
2021/06/21 05:50:16;;;;;;;4.53;3.93;;;15.60;99.90;;;;;;6149801;23;20429;-67
2021/06/21 05:52:42;;;;;;;6.73;4.67;;;15.60;99.90;;;;;;6127036;23;20154;-67
2021/06/21 05:55:09;;;;;;;4.80;4.40;;;15.50;99.90;;;;;;6136397;23;20460;-67
2021/06/21 05:57:35;;;;;;;4.90;4.27;;;15.50;99.90;;;;;;6136202;23;20405;-67
2021/06/21 06:00:00;;;;;;;4.50;3.37;;;15.50;99.90;;;;;;6126775;23;20400;-66
2021/06/21 06:02:26;;;;;;;5.37;3.80;;;15.50;99.90;;;;;;6136265;23;20422;-67
2021/06/21 06:04:52;;;;;;;5.27;3.70;;;15.50;99.90;;;;;;6136088;23;20237;-67
2021/06/21 06:07:17;;;;;;;4.60;4.20;;;15.70;99.90;;;;;;6136202;23;20218;-66
2021/06/21 06:09:49;;;;;;;6.43;4.20;;;15.70;99.90;;;;;;6135971;23;20395;-66
2021/06/21 06:12:15;;;;;;;4.50;3.90;;;15.60;99.90;;;;;;6126332;23;20140;-67
2021/06/21 06:14:41;;;;;;;6.47;5.00;;;15.60;99.90;;;;;;6136177;23;20159;-67
2021/06/21 06:17:06;;;;;;;3.70;2.87;;;15.40;99.90;;;;;;6136550;23;20692;-68
2021/06/21 06:19:32;;;;;;;4.60;2.93;;;15.40;99.90;;;;;;6135106;23;20622;-64
2021/06/21 06:21:57;;;;;;;5.20;3.33;;;15.40;99.90;;;;;;6149610;23;20169;-66
2021/06/21 06:24:25;;;;;;;4.97;4.10;;;15.40;99.90;;;;;;6136223;23;20190;-72
2021/06/21 06:26:51;;;;;;;2.95;2.72;;;15.50;99.90;;;;;;6150002;23;20166;-70
2021/06/21 06:29:16;;;;;;;3.73;3.43;;;15.40;99.90;;;;;;6136002;23;20155;-69
2021/06/21 06:31:45;;;;;;;4.00;3.60;;;15.40;99.90;;;;;;6136515;23;20179;-70
2021/06/21 06:34:11;;;;;;;4.37;3.60;;;15.50;99.90;;;;;;6136455;23;20155;-67
2021/06/21 06:36:37;;;;;;;4.70;4.20;;;15.50;99.90;;;;;;6136358;23;20374;-68
2021/06/21 06:39:05;;;;;;;4.37;3.50;;;15.40;99.90;;;;;;6136796;23;20169;-73
2021/06/21 06:41:31;;;;;;;5.50;4.03;;;15.40;99.90;;;;;;6150661;23;20163;-70
2021/06/21 06:43:56;;;;;;;4.50;4.10;;;15.40;99.90;;;;;;6150832;23;20438;-66
2021/06/21 06:46:22;;;;;;;4.03;3.53;;;15.50;99.90;;;;;;6136381;23;20668;-68
2021/06/21 06:48:47;;;;;;;4.47;4.03;;;15.60;99.90;;;;;;6136095;23;20155;-70
2021/06/21 06:51:13;;;;;;;5.63;3.93;;;15.50;99.90;;;;;;6136249;23;20156;-67
2021/06/21 06:53:47;;;;;;;6.77;5.60;;;15.50;99.90;;;;;;6136136;23;20151;-66
2021/06/21 06:58:56;;;;;;;7.90;5.73;;;15.60;99.90;;;;;;6136441;23;20433;-65
2021/06/21 07:01:23;;;;;;;5.90;4.50;;;15.70;99.90;;;;;;6128218;23;20483;-65
2021/06/21 07:03:50;;;;;;;7.33;4.43;;;16.00;99.90;;;;;;6137902;23;20653;-69
2021/06/21 07:06:17;;;;;;;3.93;3.63;;;15.80;99.90;;;;;;6137874;23;20473;-71
2021/06/21 07:08:44;;;;;;;4.90;3.90;;;16.00;99.90;;;;;;6137772;23;20845;-70
2021/06/21 07:11:10;;;;;;;4.77;4.27;;;16.00;99.90;;;;;;6137852;23;20469;-71
2021/06/21 07:13:35;;;;;;;5.93;4.70;;;16.10;99.90;;;;;;6137829;23;20448;-68
2021/06/21 07:16:01;;;;;;;8.10;5.07;;;15.90;99.90;;;;;;6137935;23;20213;-69
2021/06/21 07:18:26;;;;;;;5.40;4.90;;;15.80;99.90;;;;;;6150906;23;20159;-69
2021/06/21 07:20:52;;;;;;;5.23;4.67;;;15.70;99.90;;;;;;6137694;23;20165;-70
2021/06/21 07:23:17;;;;;;;8.07;6.73;;;15.80;99.90;;;;;;6137729;23;20155;-70
2021/06/21 07:25:44;;;;;;;5.10;4.60;;;15.70;99.90;;;;;;6136766;23;20190;-71
2021/06/21 07:28:11;;;;;;;8.30;5.30;;;15.70;99.90;;;;;;6137791;23;20206;-76
2021/06/21 07:30:37;;;;;;;5.77;5.13;;;15.90;99.90;;;;;;6126960;23;20469;-75
2021/06/21 07:33:03;;;;;;;6.83;5.03;;;15.90;99.90;;;;;;6151136;23;20714;-67
2021/06/21 07:35:29;;;;;;;4.70;4.30;;;15.90;99.90;;;;;;6137528;23;20169;-68
2021/06/21 07:37:54;;;;;;;4.53;3.50;;;16.00;99.90;;;;;;6137515;23;20399;-69
2021/06/21 07:40:20;;;;;;;3.70;3.40;;;16.10;99.90;;;;;;6151790;23;20170;-70
2021/06/21 07:42:45;;;;;;;4.73;3.93;;;16.10;99.90;;;;;;6137664;23;20147;-69
2021/06/21 07:45:12;;;;;;;4.80;4.40;;;16.10;99.90;;;;;;6137572;23;20250;-71
2021/06/21 07:47:38;;;;;;;5.20;4.67;;;16.00;99.90;;;;;;6150767;23;20287;-71
2021/06/21 07:50:04;;;;;;;4.87;4.07;;;16.30;99.90;;;;;;6150985;23;20836;-71
2021/06/21 07:52:30;;;;;;;5.03;3.90;;;16.40;99.90;;;;;;6137586;23;20477;-72
2021/06/21 07:54:59;;;;;;;4.60;4.20;;;16.20;99.90;;;;;;6137424;23;20401;-69
2021/06/21 07:57:27;;;;;;;3.30;2.80;;;16.50;99.90;;;;;;6150872;23;20201;-70
2021/06/21 07:59:53;;;;;;;4.83;3.87;;;16.70;99.90;;;;;;6150666;23;20429;-70
2021/06/21 08:02:18;;;;;;;3.80;3.47;;;16.60;99.90;;;;;;6137385;23;20398;-70
2021/06/21 08:04:47;;;;;;;3.23;2.80;;;16.80;99.90;;;;;;6137226;23;20187;-70
2021/06/21 08:07:16;;;;;;;3.80;3.50;;;16.90;99.90;;;;;;6137395;23;20195;-72
2021/06/21 08:09:42;;;;;;;3.37;3.07;;;16.60;99.90;;;;;;6137038;23;20425;-74
2021/06/21 08:12:08;;;;;;;4.23;3.80;;;16.80;99.90;;;;;;6137304;23;20422;-72
2021/06/21 08:14:33;;;;;;;3.53;3.23;;;16.60;99.90;;;;;;6137146;23;20397;-69
2021/06/21 08:16:59;;;;;;;2.80;2.33;;;16.60;99.90;;;;;;6137282;23;20745;-68
2021/06/21 08:19:25;;;;;;;2.80;2.60;;;16.20;99.90;;;;;;6127452;23;20165;-74
2021/06/21 08:21:50;;;;;;;3.10;2.23;;;16.30;99.90;;;;;;6137280;23;20234;-71
2021/06/21 08:24:16;;;;;;;3.73;3.17;;;16.20;99.90;;;;;;6136931;23;20174;-69
2021/06/21 08:26:42;;;;;;;2.70;1.90;;;16.20;99.90;;;;;;6150763;23;20174;-69
2021/06/21 08:29:07;;;;;;;4.53;2.23;;;16.30;99.90;;;;;;6127596;23;20566;-71
2021/06/21 08:31:34;;;;;;;3.13;2.93;;;16.50;99.90;;;;;;6137565;23;20410;-76
2021/06/21 08:34:00;;;;;;;3.50;3.30;;;16.70;99.90;;;;;;6150705;23;20161;-75
2021/06/21 08:36:26;;;;;;;3.93;3.10;;;17.00;99.90;;;;;;6137491;23;20829;-75
2021/06/21 08:38:52;;;;;;;3.43;3.23;;;17.00;99.90;;;;;;6136867;23;20449;-76
2021/06/21 08:41:19;;;;;;;3.03;2.83;;;17.00;99.90;;;;;;6126152;23;20399;-71
2021/06/21 08:43:45;;;;;;;5.70;3.00;;;17.00;99.90;;;;;;6136901;23;20450;-71
2021/06/21 08:46:11;;;;;;;2.50;2.30;;;16.80;99.90;;;;;;6127537;23;20457;-68
2021/06/21 08:48:42;;;;;;;3.23;2.47;;;16.80;99.90;;;;;;6136660;23;20162;-68
2021/06/21 08:51:07;;;;;;;2.27;1.77;;;16.80;99.90;;;;;;6137325;23;20146;-68
2021/06/21 08:53:33;;;;;;;3.10;2.90;;;16.70;99.90;;;;;;6136903;23;20378;-68
2021/06/21 08:55:59;;;;;;;3.07;2.83;;;16.70;99.90;;;;;;6127450;23;20159;-71
2021/06/21 08:58:24;;;;;;;2.93;2.73;;;16.80;99.90;;;;;;6136556;23;20155;-70
2021/06/21 09:00:50;;;;;;;3.90;3.60;;;16.40;99.90;;;;;;6150800;23;20237;-71
2021/06/21 09:03:16;;;;;;;5.17;4.63;;;16.50;99.90;;;;;;6136762;23;20182;-71
2021/06/21 09:05:43;;;;;;;4.17;3.80;;;16.70;99.90;;;;;;6137046;23;20183;-70
2021/06/21 09:08:09;;;;;;;3.80;3.40;;;16.40;99.90;;;;;;6137131;23;20391;-72
2021/06/21 09:10:40;;;;;;;2.73;2.13;;;16.40;99.90;;;;;;6150414;23;20478;-69
2021/06/21 09:13:07;;;;;;;2.43;2.23;;;16.30;99.90;;;;;;6136851;23;20398;-70
2021/06/21 09:15:36;;;;;;;3.50;2.37;;;16.50;99.90;;;;;;6125918;23;20537;-68
2021/06/21 09:18:34;;;;;;;1.83;1.60;;;16.60;99.90;;;;;;6150716;23;20458;-66
2021/06/21 09:21:26;;;;;;;4.00;2.10;;;16.50;99.90;;;;;;6127301;23;20410;-73
2021/06/21 09:23:54;;;;;;;2.30;2.10;;;16.40;99.90;;;;;;6127051;23;20450;-66
2021/06/21 09:26:23;;;;;;;4.20;2.20;;;16.40;99.90;;;;;;6126536;23;20553;-65
2021/06/21 09:28:49;;;;;;;1.70;1.60;;;16.60;99.90;;;;;;6136392;23;20387;-67
2021/06/21 09:31:15;;;;;;;2.73;2.20;;;16.40;99.90;;;;;;6134635;23;20386;-65
2021/06/21 09:33:41;;;;;;;4.23;2.07;;;16.60;99.90;;;;;;6126320;23;20461;-66
2021/06/21 09:36:06;;;;;;;2.00;1.90;;;16.70;99.90;;;;;;6149591;23;20703;-68
2021/06/21 09:38:32;;;;;;;2.53;2.33;;;16.80;99.90;;;;;;6136517;23;20410;-70
2021/06/21 09:40:59;;;;;;;1.70;1.60;;;16.80;99.90;;;;;;6136260;23;20151;-68
2021/06/21 09:43:27;;;;;;;1.60;1.50;;;16.50;99.90;;;;;;6136781;23;20714;-67
2021/06/21 09:46:26;;;;;;;2.80;1.87;;;16.50;99.90;;;;;;6125332;23;20703;-67
2021/06/21 09:48:54;;;;;;;1.53;1.43;;;16.60;99.90;;;;;;6137024;23;20390;-66
2021/06/21 09:51:37;;;;;;;2.47;1.43;;;16.40;99.90;;;;;;6150375;23;20406;-70
2021/06/21 09:54:08;;;;;;;1.67;1.40;;;16.30;99.90;;;;;;6149863;23;20426;-68
2021/06/21 09:56:45;;;;;;;2.50;2.30;;;16.50;99.90;;;;;;6136594;23;20437;-67
2021/06/21 09:59:25;;;;;;;2.60;2.40;;;16.40;99.90;;;;;;6126786;23;20402;-67
2021/06/21 10:02:05;;;;;;;3.00;2.10;;;16.50;99.90;;;;;;6136651;23;20455;-67
2021/06/21 10:04:31;;;;;;;2.17;1.97;;;16.40;99.90;;;;;;6136294;23;20440;-67
2021/06/21 10:06:57;;;;;;;1.80;1.70;;;16.50;99.90;;;;;;6126757;23;20401;-67
2021/06/21 10:09:22;;;;;;;4.13;3.43;;;16.50;99.90;;;;;;6136296;23;20682;-67
2021/06/21 10:11:48;;;;;;;2.17;1.97;;;16.60;99.90;;;;;;6136517;23;20459;-74
2021/06/21 10:14:19;;;;;;;2.93;2.73;;;16.90;99.90;;;;;;6136240;23;20155;-70
2021/06/21 10:16:47;;;;;;;5.00;3.03;;;17.10;99.90;;;;;;6136170;23;20409;-70
2021/06/21 10:19:14;;;;;;;2.20;2.00;;;17.10;99.90;;;;;;6135944;23;20474;-68
2021/06/21 10:21:44;;;;;;;1.90;1.60;;;16.70;99.90;;;;;;6136411;23;20383;-68
2021/06/21 10:24:11;;;;;;;3.53;1.90;;;16.70;99.90;;;;;;6136164;23;20462;-69
2021/06/21 10:26:38;;;;;;;1.70;1.60;;;16.70;99.90;;;;;;6126254;23;20387;-67
2021/06/21 10:29:04;;;;;;;1.47;1.20;;;16.80;99.90;;;;;;6149987;23;20401;-69
2021/06/21 10:31:31;;;;;;;1.30;1.20;;;16.70;99.90;;;;;;6149942;23;20540;-68
2021/06/21 10:33:58;;;;;;;1.80;1.70;;;16.90;99.90;;;;;;6138110;23;20390;-67
2021/06/21 10:36:40;;;;;;;2.80;1.70;;;17.10;99.90;;;;;;6152031;23;20383;-68
2021/06/21 10:39:10;;;;;;;3.13;2.10;;;17.10;99.90;;;;;;6138485;23;20386;-67
2021/06/21 10:41:37;;;;;;;1.57;1.40;;;17.40;99.90;;;;;;6138767;23;20383;-67
2021/06/21 10:44:22;;;;;;;1.70;1.60;;;17.50;99.90;;;;;;6138382;23;20688;-68
2021/06/21 10:46:49;;;;;;;1.57;1.47;;;17.50;99.90;;;;;;6150071;23;20497;-68
2021/06/21 10:49:30;;;;;;;1.10;1.00;;;17.20;99.90;;;;;;6138499;23;20900;-68
2021/06/21 10:51:56;;;;;;;4.40;1.40;;;17.00;99.90;;;;;;6152291;23;20805;-66
2021/06/21 10:54:24;;;;;;;5.27;1.87;;;17.00;99.90;;;;;;6138431;23;20398;-69
2021/06/21 10:56:53;;;;;;;3.90;2.10;;;17.00;99.90;;;;;;6151779;23;20254;-66
2021/06/21 10:59:21;;;;;;;3.47;3.03;;;17.00;99.90;;;;;;6137797;23;20465;-68
2021/06/21 11:01:52;;;;;;;1.90;1.63;;;17.00;99.90;;;;;;6138145;23;20390;-68
2021/06/21 11:04:36;;;;;;;1.73;1.63;;;17.30;99.90;;;;;;6126840;23;20516;-69
2021/06/21 11:07:19;;;;;;;2.10;1.93;;;17.20;99.90;;;;;;6137946;23;20398;-70
2021/06/21 11:09:50;;;;;;;1.70;1.60;;;17.00;99.90;;;;;;6138330;23;20794;-70
2021/06/21 11:12:21;;;;;;;3.33;2.33;;;17.00;99.90;;;;;;6138192;23;20437;-69
2021/06/21 11:15:09;;;;;;;1.80;1.70;;;16.80;99.90;;;;;;6137793;23;20395;-70
2021/06/21 11:17:50;;;;;;;4.63;2.10;;;17.00;99.90;;;;;;6137454;23;20821;-70
2021/06/21 11:20:40;;;;;;;2.40;2.20;;;17.00;99.90;;;;;;6137399;23;20401;-67
2021/06/21 11:23:29;;;;;;;2.40;2.20;;;17.10;99.90;;;;;;6128434;23;20391;-67
2021/06/21 11:25:58;;;;;;;10.80;2.30;;;16.90;99.90;;;;;;6137352;23;20480;-66
2021/06/21 11:28:41;;;;;;;2.13;2.03;;;16.70;99.90;;;;;;6137585;23;20437;-65
2021/06/21 11:31:27;;;;;;;2.53;1.90;;;16.70;99.90;;;;;;6138025;23;20841;-69
2021/06/21 11:34:01;;;;;;;2.03;1.90;;;16.80;99.90;;;;;;6151749;23;20395;-69
2021/06/21 11:36:47;;;;;;;2.13;2.03;;;16.70;99.90;;;;;;6137712;23;20464;-69
2021/06/21 11:39:22;;;;;;;2.80;2.60;;;16.90;99.90;;;;;;6137702;23;20386;-69
2021/06/21 11:42:05;;;;;;;2.77;2.57;;;16.90;99.90;;;;;;6138168;23;20449;-69
2021/06/21 11:44:37;;;;;;;2.47;2.23;;;17.00;99.90;;;;;;6127619;23;20438;-69
2021/06/21 11:47:22;;;;;;;4.87;2.77;;;17.10;99.90;;;;;;6128327;23;20872;-69
2021/06/21 11:49:51;;;;;;;2.47;2.30;;;17.40;99.90;;;;;;6137401;23;20414;-69
2021/06/21 11:52:28;;;;;;;2.53;2.33;;;17.20;99.90;;;;;;6137432;23;20438;-69
2021/06/21 11:54:55;;;;;;;3.73;2.83;;;17.20;99.90;;;;;;6126571;23;20461;-70
2021/06/21 11:57:24;;;;;;;3.87;3.03;;;17.30;99.90;;;;;;6126919;23;20402;-69
2021/06/21 11:59:52;;;;;;;3.20;3.00;;;17.10;99.90;;;;;;6137506;23;20493;-69
2021/06/21 12:02:25;;;;;;;5.63;4.30;;;17.30;99.90;;;;;;6151967;23;20486;-70
2021/06/21 12:04:56;;;;;;;4.40;4.00;;;17.50;99.90;;;;;;6137411;23;20430;-68
2021/06/21 12:07:43;;;;;;;4.77;4.37;;;17.30;99.90;;;;;;6151690;23;20875;-69
2021/06/21 12:10:13;;;;;;;5.87;5.27;;;17.10;99.90;;;;;;6138088;23;20375;-70
2021/06/21 12:12:41;;;;;;;5.63;4.87;;;16.90;99.90;;;;;;6137985;23;20406;-69
2021/06/21 12:15:09;;;;;;;6.20;4.73;;;16.70;99.90;;;;;;6137125;23;20394;-68
2021/06/21 12:17:35;;;;;;;5.17;4.27;;;16.90;99.90;;;;;;6137166;23;20390;-67
2021/06/21 12:20:05;;;;;;;5.50;4.50;;;17.00;99.90;;;;;;6136990;23;20394;-69
2021/06/21 12:22:32;;;;;;;4.80;4.40;;;17.00;99.90;;;;;;6137082;23;20693;-69
2021/06/21 12:24:58;;;;;;;5.27;4.30;;;17.40;99.90;;;;;;6137897;23;20430;-70
2021/06/21 12:27:24;;;;;;;3.80;3.50;;;17.10;99.90;;;;;;6127863;23;20685;-72
2021/06/21 12:29:52;;;;;;;5.20;4.70;;;17.00;99.90;;;;;;6137170;23;20387;-71
2021/06/21 12:32:19;;;;;;;8.40;5.20;;;17.20;99.90;;;;;;6136759;23;20402;-69
2021/06/21 12:34:49;;;;;;;4.87;4.47;;;17.10;99.90;;;;;;6137312;23;20395;-68
2021/06/21 12:37:20;;;;;;;6.20;4.57;;;17.10;99.90;;;;;;6137023;23;20703;-68
2021/06/21 12:39:48;;;;;;;5.37;4.97;;;17.00;99.90;;;;;;6125709;23;20426;-67
2021/06/21 12:42:18;;;;;;;7.23;5.53;;;17.20;99.90;;;;;;6137000;23;20422;-68
2021/06/21 12:44:46;;;;;;;4.73;4.33;;;17.10;99.90;;;;;;6137245;23;20437;-69
2021/06/21 12:47:22;;;;;;;5.03;4.63;;;17.00;99.90;;;;;;6136826;23;20401;-70
2021/06/21 12:49:50;;;;;;;4.57;4.07;;;16.90;99.90;;;;;;6151306;23;20390;-69
2021/06/21 12:52:18;;;;;;;5.70;5.07;;;16.90;99.90;;;;;;6136991;23;20425;-65
2021/06/21 12:54:44;;;;;;;5.10;4.70;;;17.20;99.90;;;;;;6136818;23;20456;-74
2021/06/21 12:57:10;;;;;;;5.53;4.63;;;17.40;99.90;;;;;;6150617;23;20461;-72